sensor_id;sensor_type;location;lat;lon;timestamp;P1;durP1;ratioP1;P2;durP2;ratioP2
66437;SDS011;54537;47.972;11.662;2024-03-17T20:09:11;8.55;;;1.65;;
66437;SDS011;54537;47.972;11.662;2024-03-17T20:11:39;5.47;;;1.67;;
66437;SDS011;54537;47.972;11.662;2024-03-17T20:14:05;5.60;;;2.10;;
66437;SDS011;54537;47.972;11.662;2024-03-17T20:16:32;3.97;;;2.05;;
66437;SDS011;54537;47.972;11.662;2024-03-17T20:19:02;5.25;;;2.28;;
66437;SDS011;54537;47.972;11.662;2024-03-17T20:21:29;4.83;;;2.00;;
66437;SDS011;54537;47.972;11.662;2024-03-17T20:23:57;6.15;;;2.40;;
66437;SDS011;54537;47.972;11.662;2024-03-17T20:26:24;9.80;;;3.10;;
66437;SDS011;54537;47.972;11.662;2024-03-17T20:28:54;9.57;;;3.75;;
66437;SDS011;54537;47.972;11.662;2024-03-17T20:31:20;12.65;;;4.70;;
66437;SDS011;54537;47.972;11.662;2024-03-17T20:33:47;11.65;;;4.50;;
66437;SDS011;54537;47.972;11.662;2024-03-17T20:36:15;11.35;;;4.40;;
66437;SDS011;54537;47.972;11.662;2024-03-17T20:38:42;15.80;;;6.70;;
66437;SDS011;54537;47.972;11.662;2024-03-17T20:41:09;23.03;;;10.10;;
66437;SDS011;54537;47.972;11.662;2024-03-17T20:43:36;23.95;;;11.90;;
66437;SDS011;54537;47.972;11.662;2024-03-17T20:46:03;23.85;;;11.82;;
66437;SDS011;54537;47.972;11.662;2024-03-17T20:48:30;17.35;;;8.70;;
66437;SDS011;54537;47.972;11.662;2024-03-17T20:50:57;15.23;;;6.60;;
66437;SDS011;54537;47.972;11.662;2024-03-17T20:53:23;14.60;;;5.68;;
66437;SDS011;54537;47.972;11.662;2024-03-17T20:55:50;6.38;;;2.35;;
66437;SDS011;54537;47.972;11.662;2024-03-17T20:58:18;8.67;;;2.33;;
66437;SDS011;54537;47.972;11.662;2024-03-17T21:00:45;10.50;;;2.35;;
66437;SDS011;54537;47.972;11.662;2024-03-17T21:03:13;5.28;;;2.00;;
66437;SDS011;54537;47.972;11.662;2024-03-17T21:05:40;6.53;;;1.70;;
66437;SDS011;54537;47.972;11.662;2024-03-17T21:08:06;6.22;;;1.77;;
66437;SDS011;54537;47.972;11.662;2024-03-17T21:10:33;5.32;;;1.60;;
66437;SDS011;54537;47.972;11.662;2024-03-17T21:13:01;4.90;;;1.98;;
66437;SDS011;54537;47.972;11.662;2024-03-17T21:15:29;5.82;;;1.60;;
66437;SDS011;54537;47.972;11.662;2024-03-17T21:17:55;4.13;;;1.60;;
66437;SDS011;54537;47.972;11.662;2024-03-17T21:20:22;5.38;;;1.67;;
66437;SDS011;54537;47.972;11.662;2024-03-17T21:22:50;6.80;;;2.30;;
66437;SDS011;54537;47.972;11.662;2024-03-17T21:25:21;6.35;;;1.95;;
66437;SDS011;54537;47.972;11.662;2024-03-17T21:27:48;5.05;;;1.80;;
66437;SDS011;54537;47.972;11.662;2024-03-17T21:30:16;5.47;;;2.40;;
66437;SDS011;54537;47.972;11.662;2024-03-17T21:32:45;6.43;;;2.15;;
66437;SDS011;54537;47.972;11.662;2024-03-17T21:35:11;5.78;;;1.83;;
66437;SDS011;54537;47.972;11.662;2024-03-17T21:37:40;6.37;;;1.93;;
66437;SDS011;54537;47.972;11.662;2024-03-17T21:40:07;5.35;;;1.80;;
66437;SDS011;54537;47.972;11.662;2024-03-17T21:42:38;6.35;;;1.70;;
66437;SDS011;54537;47.972;11.662;2024-03-17T21:45:06;6.60;;;1.90;;
66437;SDS011;54537;47.972;11.662;2024-03-17T21:47:36;5.50;;;1.80;;
66437;SDS011;54537;47.972;11.662;2024-03-17T21:50:06;4.97;;;1.70;;
66437;SDS011;54537;47.972;11.662;2024-03-17T21:52:35;4.55;;;2.10;;
66437;SDS011;54537;47.972;11.662;2024-03-17T21:55:02;6.07;;;2.23;;
66437;SDS011;54537;47.972;11.662;2024-03-17T21:57:29;6.57;;;2.20;;
66437;SDS011;54537;47.972;11.662;2024-03-17T21:59:55;7.37;;;2.30;;
66437;SDS011;54537;47.972;11.662;2024-03-17T22:02:22;5.63;;;2.00;;
66437;SDS011;54537;47.972;11.662;2024-03-17T22:04:48;5.97;;;2.20;;
66437;SDS011;54537;47.972;11.662;2024-03-17T22:07:17;6.68;;;2.45;;
66437;SDS011;54537;47.972;11.662;2024-03-17T22:09:43;5.05;;;2.20;;
66437;SDS011;54537;47.972;11.662;2024-03-17T22:12:10;4.78;;;1.77;;
66437;SDS011;54537;47.972;11.662;2024-03-17T22:14:36;6.00;;;1.55;;
66437;SDS011;54537;47.972;11.662;2024-03-17T22:17:03;6.60;;;1.90;;
66437;SDS011;54537;47.972;11.662;2024-03-17T22:19:29;5.37;;;1.70;;
66437;SDS011;54537;47.972;11.662;2024-03-17T22:21:58;7.03;;;1.70;;
66437;SDS011;54537;47.972;11.662;2024-03-17T22:24:26;4.20;;;1.60;;
66437;SDS011;54537;47.972;11.662;2024-03-17T22:26:52;4.32;;;1.50;;
66437;SDS011;54537;47.972;11.662;2024-03-17T22:29:19;5.80;;;1.70;;
66437;SDS011;54537;47.972;11.662;2024-03-17T22:31:46;5.25;;;1.77;;
66437;SDS011;54537;47.972;11.662;2024-03-17T22:34:13;4.40;;;1.60;;
66437;SDS011;54537;47.972;11.662;2024-03-17T22:36:39;5.25;;;1.63;;
66437;SDS011;54537;47.972;11.662;2024-03-17T22:39:06;5.53;;;1.70;;
66437;SDS011;54537;47.972;11.662;2024-03-17T22:41:34;4.00;;;1.73;;
66437;SDS011;54537;47.972;11.662;2024-03-17T22:44:00;6.15;;;1.90;;
66437;SDS011;54537;47.972;11.662;2024-03-17T22:46:27;6.20;;;1.95;;
66437;SDS011;54537;47.972;11.662;2024-03-17T22:48:53;5.00;;;1.73;;
66437;SDS011;54537;47.972;11.662;2024-03-17T22:51:20;5.63;;;2.10;;
66437;SDS011;54537;47.972;11.662;2024-03-17T22:53:46;6.68;;;2.30;;
66437;SDS011;54537;47.972;11.662;2024-03-17T22:56:13;5.47;;;2.10;;
66437;SDS011;54537;47.972;11.662;2024-03-17T22:58:41;7.63;;;2.30;;
66437;SDS011;54537;47.972;11.662;2024-03-17T23:01:08;6.75;;;2.28;;
66437;SDS011;54537;47.972;11.662;2024-03-17T23:03:35;5.22;;;1.90;;
66437;SDS011;54537;47.972;11.662;2024-03-17T23:06:02;4.65;;;1.88;;
66437;SDS011;54537;47.972;11.662;2024-03-17T23:08:29;5.10;;;1.88;;
66437;SDS011;54537;47.972;11.662;2024-03-17T23:10:58;3.45;;;1.70;;
66437;SDS011;54537;47.972;11.662;2024-03-17T23:13:25;5.10;;;1.60;;
66437;SDS011;54537;47.972;11.662;2024-03-17T23:15:53;4.00;;;1.98;;
66437;SDS011;54537;47.972;11.662;2024-03-17T23:18:21;6.70;;;1.80;;
66437;SDS011;54537;47.972;11.662;2024-03-17T23:20:48;6.43;;;1.90;;
66437;SDS011;54537;47.972;11.662;2024-03-17T23:23:15;9.27;;;2.53;;
66437;SDS011;54537;47.972;11.662;2024-03-17T23:25:42;7.13;;;2.05;;
66437;SDS011;54537;47.972;11.662;2024-03-17T23:28:09;7.25;;;2.35;;
66437;SDS011;54537;47.972;11.662;2024-03-17T23:30:36;7.13;;;2.40;;
66437;SDS011;54537;47.972;11.662;2024-03-17T23:33:05;9.05;;;3.05;;
66437;SDS011;54537;47.972;11.662;2024-03-17T23:35:31;8.23;;;3.22;;
66437;SDS011;54537;47.972;11.662;2024-03-17T23:37:58;7.15;;;2.40;;
66437;SDS011;54537;47.972;11.662;2024-03-17T23:40:25;8.98;;;3.08;;
66437;SDS011;54537;47.972;11.662;2024-03-17T23:42:53;4.88;;;1.90;;
66437;SDS011;54537;47.972;11.662;2024-03-17T23:45:20;4.63;;;1.70;;
66437;SDS011;54537;47.972;11.662;2024-03-17T23:47:47;4.25;;;1.50;;
66437;SDS011;54537;47.972;11.662;2024-03-17T23:50:15;3.97;;;1.42;;
66437;SDS011;54537;47.972;11.662;2024-03-17T23:52:42;4.05;;;1.60;;
66437;SDS011;54537;47.972;11.662;2024-03-17T23:55:09;5.45;;;1.48;;
66437;SDS011;54537;47.972;11.662;2024-03-17T23:57:36;6.28;;;1.80;;
